Flughafen Wetterinformationen

LTBA 222050Z 03004KT CAVOK 18/15 Q1022 NOSIG

VATSIM Feed

Card image cap

ATC Buchungen

Position Name Datum Zeit in UTC
LTFM_TWR Cenk Tarhan 29/10/2020 1700 ‐ 2000

Card image cap

Aktive Flugsicherung

Derzeit sind keine Fluglotsen Online

Blog

Read our latest news and get to know us better.

Back to Home

Unter diesem Motto haben das türkische vACC und Vatsim Deutschland einen echten Knaller für das Ende der Ferien in Nordrhein-Westfalen geplant. Im wirklichen Leben ist es die am meisten geflogene Passagierroute beider Flughäfen und jetzt Weiterlesen…